sensor_id;sensor_type;location;lat;lon;timestamp;P1;durP1;ratioP1;P2;durP2;ratioP2
58496;SDS011;44284;51.310;16.904;2023-05-07T00:01:51;21.30;;;13.85;;
58496;SDS011;44284;51.310;16.904;2023-05-07T00:04:18;17.17;;;13.73;;
58496;SDS011;44284;51.310;16.904;2023-05-07T00:06:44;16.70;;;13.45;;
58496;SDS011;44284;51.310;16.904;2023-05-07T00:09:10;17.02;;;13.57;;
58496;SDS011;44284;51.310;16.904;2023-05-07T00:14:21;19.77;;;14.38;;
58496;SDS011;44284;51.310;16.904;2023-05-07T00:16:47;19.02;;;14.15;;
58496;SDS011;44284;51.310;16.904;2023-05-07T00:19:13;20.08;;;13.75;;
58496;SDS011;44284;51.310;16.904;2023-05-07T00:21:39;22.00;;;13.68;;
58496;SDS011;44284;51.310;16.904;2023-05-07T00:24:05;19.58;;;14.20;;
58496;SDS011;44284;51.310;16.904;2023-05-07T00:26:31;23.88;;;15.38;;
58496;SDS011;44284;51.310;16.904;2023-05-07T00:28:57;23.10;;;15.48;;
58496;SDS011;44284;51.310;16.904;2023-05-07T00:31:23;19.98;;;14.30;;
58496;SDS011;44284;51.310;16.904;2023-05-07T00:33:49;23.83;;;16.92;;
58496;SDS011;44284;51.310;16.904;2023-05-07T00:36:26;25.25;;;15.80;;
58496;SDS011;44284;51.310;16.904;2023-05-07T00:38:56;21.77;;;16.50;;
58496;SDS011;44284;51.310;16.904;2023-05-07T00:41:22;23.92;;;16.75;;
58496;SDS011;44284;51.310;16.904;2023-05-07T00:43:48;22.67;;;16.77;;
58496;SDS011;44284;51.310;16.904;2023-05-07T00:46:16;22.90;;;16.90;;
58496;SDS011;44284;51.310;16.904;2023-05-07T00:48:43;22.50;;;16.42;;
58496;SDS011;44284;51.310;16.904;2023-05-07T00:51:09;28.00;;;17.92;;
58496;SDS011;44284;51.310;16.904;2023-05-07T00:53:36;23.45;;;17.38;;
58496;SDS011;44284;51.310;16.904;2023-05-07T00:56:02;24.17;;;16.95;;
58496;SDS011;44284;51.310;16.904;2023-05-07T00:58:28;25.08;;;16.50;;
58496;SDS011;44284;51.310;16.904;2023-05-07T01:00:55;23.83;;;16.88;;
58496;SDS011;44284;51.310;16.904;2023-05-07T01:03:21;21.73;;;16.75;;
58496;SDS011;44284;51.310;16.904;2023-05-07T01:05:47;26.30;;;17.33;;
58496;SDS011;44284;51.310;16.904;2023-05-07T01:08:14;23.33;;;16.50;;
58496;SDS011;44284;51.310;16.904;2023-05-07T01:10:41;22.67;;;16.70;;
58496;SDS011;44284;51.310;16.904;2023-05-07T01:13:08;24.63;;;16.75;;
58496;SDS011;44284;51.310;16.904;2023-05-07T01:15:35;24.40;;;16.08;;
58496;SDS011;44284;51.310;16.904;2023-05-07T01:18:01;22.80;;;16.17;;
58496;SDS011;44284;51.310;16.904;2023-05-07T01:20:27;22.60;;;16.20;;
58496;SDS011;44284;51.310;16.904;2023-05-07T01:22:53;24.20;;;17.42;;
58496;SDS011;44284;51.310;16.904;2023-05-07T01:25:20;28.88;;;18.23;;
58496;SDS011;44284;51.310;16.904;2023-05-07T01:27:46;22.70;;;16.80;;
58496;SDS011;44284;51.310;16.904;2023-05-07T01:30:12;23.83;;;17.02;;
58496;SDS011;44284;51.310;16.904;2023-05-07T01:32:43;28.58;;;15.98;;
58496;SDS011;44284;51.310;16.904;2023-05-07T01:35:10;23.98;;;16.52;;
58496;SDS011;44284;51.310;16.904;2023-05-07T01:37:37;23.58;;;17.67;;
58496;SDS011;44284;51.310;16.904;2023-05-07T01:40:03;23.83;;;17.08;;
58496;SDS011;44284;51.310;16.904;2023-05-07T01:42:29;22.85;;;16.90;;
58496;SDS011;44284;51.310;16.904;2023-05-07T01:44:55;23.05;;;17.17;;
58496;SDS011;44284;51.310;16.904;2023-05-07T01:47:22;24.35;;;17.92;;
58496;SDS011;44284;51.310;16.904;2023-05-07T01:49:48;23.60;;;16.88;;
58496;SDS011;44284;51.310;16.904;2023-05-07T01:52:15;22.70;;;16.10;;
58496;SDS011;44284;51.310;16.904;2023-05-07T01:54:41;24.17;;;16.70;;
58496;SDS011;44284;51.310;16.904;2023-05-07T01:57:07;27.15;;;17.33;;
58496;SDS011;44284;51.310;16.904;2023-05-07T01:59:33;22.85;;;16.25;;
58496;SDS011;44284;51.310;16.904;2023-05-07T02:01:59;25.02;;;17.50;;
58496;SDS011;44284;51.310;16.904;2023-05-07T02:04:26;27.38;;;18.35;;
58496;SDS011;44284;51.310;16.904;2023-05-07T02:06:52;27.65;;;18.55;;
58496;SDS011;44284;51.310;16.904;2023-05-07T02:09:18;27.58;;;18.42;;
58496;SDS011;44284;51.310;16.904;2023-05-07T02:11:44;28.63;;;19.35;;
58496;SDS011;44284;51.310;16.904;2023-05-07T02:14:10;28.73;;;19.60;;
58496;SDS011;44284;51.310;16.904;2023-05-07T02:16:36;26.52;;;19.45;;
58496;SDS011;44284;51.310;16.904;2023-05-07T02:19:02;27.88;;;19.13;;
58496;SDS011;44284;51.310;16.904;2023-05-07T02:21:28;27.88;;;18.45;;
58496;SDS011;44284;51.310;16.904;2023-05-07T02:23:54;25.13;;;19.00;;
58496;SDS011;44284;51.310;16.904;2023-05-07T02:26:20;28.50;;;18.75;;
58496;SDS011;44284;51.310;16.904;2023-05-07T02:28:46;30.25;;;18.27;;
58496;SDS011;44284;51.310;16.904;2023-05-07T02:31:12;27.23;;;18.30;;
58496;SDS011;44284;51.310;16.904;2023-05-07T02:33:38;28.58;;;19.15;;
58496;SDS011;44284;51.310;16.904;2023-05-07T02:36:11;24.30;;;18.02;;
58496;SDS011;44284;51.310;16.904;2023-05-07T02:38:37;25.73;;;17.02;;
58496;SDS011;44284;51.310;16.904;2023-05-07T02:41:03;25.77;;;17.52;;
58496;SDS011;44284;51.310;16.904;2023-05-07T02:43:30;24.20;;;16.48;;
58496;SDS011;44284;51.310;16.904;2023-05-07T02:46:05;25.75;;;18.10;;
58496;SDS011;44284;51.310;16.904;2023-05-07T02:48:32;21.55;;;15.43;;
58496;SDS011;44284;51.310;16.904;2023-05-07T02:50:58;24.27;;;16.05;;
58496;SDS011;44284;51.310;16.904;2023-05-07T02:53:25;24.77;;;16.65;;
58496;SDS011;44284;51.310;16.904;2023-05-07T02:55:54;25.20;;;17.20;;
58496;SDS011;44284;51.310;16.904;2023-05-07T02:58:21;23.73;;;16.92;;
58496;SDS011;44284;51.310;16.904;2023-05-07T03:00:47;24.83;;;17.10;;
58496;SDS011;44284;51.310;16.904;2023-05-07T03:03:13;26.55;;;17.88;;
58496;SDS011;44284;51.310;16.904;2023-05-07T03:05:39;23.60;;;16.30;;
58496;SDS011;44284;51.310;16.904;2023-05-07T03:08:05;25.42;;;16.67;;
58496;SDS011;44284;51.310;16.904;2023-05-07T03:10:32;25.85;;;17.27;;
58496;SDS011;44284;51.310;16.904;2023-05-07T03:12:58;23.20;;;16.17;;
58496;SDS011;44284;51.310;16.904;2023-05-07T03:15:24;23.63;;;17.23;;
58496;SDS011;44284;51.310;16.904;2023-05-07T03:17:50;24.42;;;18.08;;
58496;SDS011;44284;51.310;16.904;2023-05-07T03:20:16;26.65;;;18.30;;
58496;SDS011;44284;51.310;16.904;2023-05-07T03:22:42;27.48;;;17.92;;
58496;SDS011;44284;51.310;16.904;2023-05-07T03:25:08;26.30;;;18.52;;
58496;SDS011;44284;51.310;16.904;2023-05-07T03:27:35;24.23;;;17.85;;
58496;SDS011;44284;51.310;16.904;2023-05-07T03:30:01;27.73;;;19.05;;
58496;SDS011;44284;51.310;16.904;2023-05-07T03:32:27;29.30;;;19.60;;
58496;SDS011;44284;51.310;16.904;2023-05-07T03:34:53;29.85;;;19.20;;
58496;SDS011;44284;51.310;16.904;2023-05-07T03:37:19;27.92;;;18.30;;
58496;SDS011;44284;51.310;16.904;2023-05-07T03:39:46;28.50;;;19.70;;
58496;SDS011;44284;51.310;16.904;2023-05-07T03:42:12;25.42;;;17.90;;
58496;SDS011;44284;51.310;16.904;2023-05-07T03:44:38;25.65;;;17.15;;
58496;SDS011;44284;51.310;16.904;2023-05-07T03:47:04;24.58;;;16.75;;
58496;SDS011;44284;51.310;16.904;2023-05-07T03:49:31;21.95;;;16.15;;
58496;SDS011;44284;51.310;16.904;2023-05-07T03:51:57;22.70;;;16.48;;
58496;SDS011;44284;51.310;16.904;2023-05-07T03:54:23;26.45;;;17.58;;
58496;SDS011;44284;51.310;16.904;2023-05-07T03:56:49;26.58;;;17.92;;
58496;SDS011;44284;51.310;16.904;2023-05-07T03:59:15;23.63;;;17.88;;
58496;SDS011;44284;51.310;16.904;2023-05-07T04:01:41;24.42;;;17.23;;
58496;SDS011;44284;51.310;16.904;2023-05-07T04:04:07;24.13;;;17.15;;
58496;SDS011;44284;51.310;16.904;2023-05-07T04:06:33;24.65;;;16.95;;
58496;SDS011;44284;51.310;16.904;2023-05-07T04:08:59;21.63;;;15.57;;
58496;SDS011;44284;51.310;16.904;2023-05-07T04:11:25;21.13;;;15.05;;
58496;SDS011;44284;51.310;16.904;2023-05-07T04:13:51;20.25;;;14.35;;
58496;SDS011;44284;51.310;16.904;2023-05-07T04:16:17;19.67;;;14.30;;
58496;SDS011;44284;51.310;16.904;2023-05-07T04:18:43;20.83;;;14.90;;
58496;SDS011;44284;51.310;16.904;2023-05-07T04:21:16;21.40;;;15.02;;
58496;SDS011;44284;51.310;16.904;2023-05-07T04:23:42;19.60;;;14.80;;
58496;SDS011;44284;51.310;16.904;2023-05-07T04:26:08;21.33;;;14.23;;
58496;SDS011;44284;51.310;16.904;2023-05-07T04:28:34;20.55;;;14.43;;
58496;SDS011;44284;51.310;16.904;2023-05-07T04:31:01;18.75;;;14.23;;
58496;SDS011;44284;51.310;16.904;2023-05-07T04:33:27;17.65;;;13.50;;
58496;SDS011;44284;51.310;16.904;2023-05-07T04:35:53;23.23;;;15.18;;
58496;SDS011;44284;51.310;16.904;2023-05-07T04:38:19;20.17;;;13.68;;
58496;SDS011;44284;51.310;16.904;2023-05-07T04:40:45;20.30;;;15.55;;
58496;SDS011;44284;51.310;16.904;2023-05-07T04:43:11;18.23;;;14.43;;
58496;SDS011;44284;51.310;16.904;2023-05-07T04:45:38;18.98;;;14.13;;
58496;SDS011;44284;51.310;16.904;2023-05-07T04:48:06;19.92;;;13.10;;
58496;SDS011;44284;51.310;16.904;2023-05-07T04:50:32;18.00;;;12.80;;
58496;SDS011;44284;51.310;16.904;2023-05-07T04:52:58;16.85;;;11.95;;
58496;SDS011;44284;51.310;16.904;2023-05-07T04:55:24;14.80;;;11.98;;
58496;SDS011;44284;51.310;16.904;2023-05-07T04:57:51;17.90;;;12.10;;
58496;SDS011;44284;51.310;16.904;2023-05-07T05:00:17;17.15;;;12.15;;
58496;SDS011;44284;51.310;16.904;2023-05-07T05:02:44;22.08;;;13.05;;
58496;SDS011;44284;51.310;16.904;2023-05-07T05:05:10;15.07;;;11.38;;
58496;SDS011;44284;51.310;16.904;2023-05-07T05:07:36;15.10;;;11.02;;
58496;SDS011;44284;51.310;16.904;2023-05-07T05:10:04;13.98;;;10.68;;
58496;SDS011;44284;51.310;16.904;2023-05-07T05:12:31;16.45;;;10.60;;
58496;SDS011;44284;51.310;16.904;2023-05-07T05:14:57;14.50;;;10.77;;
58496;SDS011;44284;51.310;16.904;2023-05-07T05:17:23;12.40;;;9.77;;
58496;SDS011;44284;51.310;16.904;2023-05-07T05:19:49;11.88;;;9.00;;
58496;SDS011;44284;51.310;16.904;2023-05-07T05:22:16;13.32;;;9.75;;
58496;SDS011;44284;51.310;16.904;2023-05-07T05:24:42;13.07;;;9.38;;
58496;SDS011;44284;51.310;16.904;2023-05-07T05:27:08;12.75;;;9.57;;
58496;SDS011;44284;51.310;16.904;2023-05-07T05:29:34;12.82;;;9.63;;
58496;SDS011;44284;51.310;16.904;2023-05-07T05:32:00;13.73;;;9.35;;
58496;SDS011;44284;51.310;16.904;2023-05-07T05:34:26;13.57;;;9.43;;
58496;SDS011;44284;51.310;16.904;2023-05-07T05:36:52;14.52;;;9.43;;
58496;SDS011;44284;51.310;16.904;2023-05-07T05:39:18;13.88;;;9.07;;
58496;SDS011;44284;51.310;16.904;2023-05-07T05:41:44;12.35;;;8.70;;
58496;SDS011;44284;51.310;16.904;2023-05-07T05:44:10;13.65;;;9.25;;
58496;SDS011;44284;51.310;16.904;2023-05-07T05:46:36;12.30;;;9.90;;
58496;SDS011;44284;51.310;16.904;2023-05-07T05:49:02;14.02;;;9.93;;
58496;SDS011;44284;51.310;16.904;2023-05-07T05:51:28;14.63;;;9.70;;
58496;SDS011;44284;51.310;16.904;2023-05-07T05:53:55;13.55;;;9.35;;
58496;SDS011;44284;51.310;16.904;2023-05-07T05:56:21;14.18;;;10.25;;
58496;SDS011;44284;51.310;16.904;2023-05-07T05:58:47;14.20;;;10.20;;
58496;SDS011;44284;51.310;16.904;2023-05-07T06:01:13;16.65;;;10.57;;
58496;SDS011;44284;51.310;16.904;2023-05-07T06:03:40;15.38;;;11.52;;
58496;SDS011;44284;51.310;16.904;2023-05-07T06:06:06;15.68;;;11.85;;
58496;SDS011;44284;51.310;16.904;2023-05-07T06:08:32;16.30;;;11.55;;
58496;SDS011;44284;51.310;16.904;2023-05-07T06:10:58;18.63;;;13.02;;
58496;SDS011;44284;51.310;16.904;2023-05-07T06:13:25;17.05;;;13.07;;
58496;SDS011;44284;51.310;16.904;2023-05-07T06:15:51;17.98;;;13.32;;
58496;SDS011;44284;51.310;16.904;2023-05-07T06:18:17;18.80;;;13.75;;
58496;SDS011;44284;51.310;16.904;2023-05-07T06:20:43;15.93;;;12.98;;
58496;SDS011;44284;51.310;16.904;2023-05-07T06:23:09;17.63;;;12.75;;
58496;SDS011;44284;51.310;16.904;2023-05-07T06:25:35;17.15;;;12.70;;
58496;SDS011;44284;51.310;16.904;2023-05-07T06:28:01;15.02;;;11.50;;
58496;SDS011;44284;51.310;16.904;2023-05-07T06:30:27;13.77;;;10.63;;
58496;SDS011;44284;51.310;16.904;2023-05-07T06:32:53;14.95;;;10.35;;
58496;SDS011;44284;51.310;16.904;2023-05-07T06:35:19;14.30;;;10.25;;
58496;SDS011;44284;51.310;16.904;2023-05-07T06:37:45;11.65;;;8.57;;
58496;SDS011;44284;51.310;16.904;2023-05-07T06:40:11;12.63;;;7.97;;
58496;SDS011;44284;51.310;16.904;2023-05-07T06:42:37;9.38;;;6.65;;
58496;SDS011;44284;51.310;16.904;2023-05-07T06:45:03;10.23;;;7.78;;
58496;SDS011;44284;51.310;16.904;2023-05-07T06:47:29;9.93;;;7.15;;
58496;SDS011;44284;51.310;16.904;2023-05-07T06:49:55;11.10;;;7.68;;
58496;SDS011;44284;51.310;16.904;2023-05-07T06:52:22;10.98;;;7.57;;
58496;SDS011;44284;51.310;16.904;2023-05-07T06:54:48;10.63;;;7.68;;
58496;SDS011;44284;51.310;16.904;2023-05-07T06:57:14;10.32;;;8.13;;
58496;SDS011;44284;51.310;16.904;2023-05-07T06:59:40;12.15;;;8.43;;
58496;SDS011;44284;51.310;16.904;2023-05-07T07:02:06;8.60;;;7.13;;
58496;SDS011;44284;51.310;16.904;2023-05-07T07:04:33;10.93;;;7.38;;
58496;SDS011;44284;51.310;16.904;2023-05-07T07:06:59;10.05;;;7.40;;
58496;SDS011;44284;51.310;16.904;2023-05-07T07:09:25;11.45;;;7.97;;
58496;SDS011;44284;51.310;16.904;2023-05-07T07:11:51;12.73;;;8.50;;
58496;SDS011;44284;51.310;16.904;2023-05-07T07:14:17;12.20;;;8.73;;
58496;SDS011;44284;51.310;16.904;2023-05-07T07:16:43;12.90;;;9.80;;
58496;SDS011;44284;51.310;16.904;2023-05-07T07:19:09;12.43;;;9.60;;
58496;SDS011;44284;51.310;16.904;2023-05-07T07:21:35;11.75;;;10.10;;
58496;SDS011;44284;51.310;16.904;2023-05-07T07:24:01;14.68;;;11.68;;
58496;SDS011;44284;51.310;16.904;2023-05-07T07:26:27;14.05;;;10.82;;
58496;SDS011;44284;51.310;16.904;2023-05-07T07:28:53;13.70;;;11.25;;
58496;SDS011;44284;51.310;16.904;2023-05-07T07:31:19;15.25;;;11.43;;
58496;SDS011;44284;51.310;16.904;2023-05-07T07:33:45;18.00;;;13.00;;
58496;SDS011;44284;51.310;16.904;2023-05-07T07:36:12;14.90;;;11.25;;
58496;SDS011;44284;51.310;16.904;2023-05-07T07:38:38;18.20;;;14.00;;
58496;SDS011;44284;51.310;16.904;2023-05-07T07:41:04;16.70;;;11.98;;
58496;SDS011;44284;51.310;16.904;2023-05-07T07:43:30;14.88;;;11.75;;
58496;SDS011;44284;51.310;16.904;2023-05-07T07:45:56;15.88;;;12.20;;
58496;SDS011;44284;51.310;16.904;2023-05-07T07:48:22;14.02;;;11.20;;
58496;SDS011;44284;51.310;16.904;2023-05-07T07:50:48;14.52;;;11.20;;
58496;SDS011;44284;51.310;16.904;2023-05-07T07:53:16;17.83;;;12.25;;
58496;SDS011;44284;51.310;16.904;2023-05-07T07:55:42;16.15;;;11.43;;
58496;SDS011;44284;51.310;16.904;2023-05-07T07:58:08;14.10;;;11.57;;
58496;SDS011;44284;51.310;16.904;2023-05-07T08:00:34;15.82;;;11.38;;
58496;SDS011;44284;51.310;16.904;2023-05-07T08:03:00;15.32;;;12.10;;
58496;SDS011;44284;51.310;16.904;2023-05-07T08:05:28;15.90;;;12.60;;
58496;SDS011;44284;51.310;16.904;2023-05-07T08:07:54;14.80;;;11.63;;
58496;SDS011;44284;51.310;16.904;2023-05-07T08:10:21;17.80;;;12.13;;
58496;SDS011;44284;51.310;16.904;2023-05-07T08:12:50;16.15;;;12.55;;
58496;SDS011;44284;51.310;16.904;2023-05-07T08:15:17;17.65;;;13.15;;
58496;SDS011;44284;51.310;16.904;2023-05-07T08:17:43;21.42;;;16.08;;
58496;SDS011;44284;51.310;16.904;2023-05-07T08:20:09;22.70;;;17.40;;
58496;SDS011;44284;51.310;16.904;2023-05-07T08:22:35;20.65;;;16.23;;
58496;SDS011;44284;51.310;16.904;2023-05-07T08:25:02;24.77;;;17.35;;
58496;SDS011;44284;51.310;16.904;2023-05-07T08:27:28;20.10;;;15.80;;
58496;SDS011;44284;51.310;16.904;2023-05-07T08:29:54;18.85;;;14.55;;
58496;SDS011;44284;51.310;16.904;2023-05-07T08:32:20;20.52;;;15.60;;
58496;SDS011;44284;51.310;16.904;2023-05-07T08:34:47;19.13;;;14.27;;
58496;SDS011;44284;51.310;16.904;2023-05-07T08:37:13;18.58;;;13.95;;
58496;SDS011;44284;51.310;16.904;2023-05-07T08:39:39;18.73;;;14.68;;
58496;SDS011;44284;51.310;16.904;2023-05-07T08:42:05;17.98;;;14.48;;
58496;SDS011;44284;51.310;16.904;2023-05-07T08:44:35;18.95;;;14.00;;
58496;SDS011;44284;51.310;16.904;2023-05-07T08:47:01;21.23;;;16.10;;
58496;SDS011;44284;51.310;16.904;2023-05-07T08:49:28;19.45;;;14.48;;
58496;SDS011;44284;51.310;16.904;2023-05-07T08:51:54;21.40;;;14.77;;
58496;SDS011;44284;51.310;16.904;2023-05-07T08:54:20;18.70;;;14.48;;
58496;SDS011;44284;51.310;16.904;2023-05-07T08:56:46;15.73;;;13.32;;
58496;SDS011;44284;51.310;16.904;2023-05-07T08:59:13;18.90;;;13.15;;
58496;SDS011;44284;51.310;16.904;2023-05-07T09:01:39;16.30;;;12.90;;
58496;SDS011;44284;51.310;16.904;2023-05-07T09:04:05;14.80;;;12.38;;
58496;SDS011;44284;51.310;16.904;2023-05-07T09:06:32;16.15;;;12.32;;
58496;SDS011;44284;51.310;16.904;2023-05-07T09:08:58;15.05;;;11.75;;
58496;SDS011;44284;51.310;16.904;2023-05-07T09:11:26;14.10;;;11.32;;
58496;SDS011;44284;51.310;16.904;2023-05-07T09:13:56;14.00;;;11.35;;
58496;SDS011;44284;51.310;16.904;2023-05-07T09:16:29;14.73;;;11.45;;
58496;SDS011;44284;51.310;16.904;2023-05-07T09:18:56;13.73;;;11.30;;
58496;SDS011;44284;51.310;16.904;2023-05-07T09:21:23;15.52;;;11.55;;
58496;SDS011;44284;51.310;16.904;2023-05-07T09:23:52;14.20;;;11.23;;
58496;SDS011;44284;51.310;16.904;2023-05-07T09:26:18;15.82;;;11.65;;
58496;SDS011;44284;51.310;16.904;2023-05-07T09:28:46;13.77;;;11.73;;
58496;SDS011;44284;51.310;16.904;2023-05-07T09:31:12;14.95;;;11.82;;
58496;SDS011;44284;51.310;16.904;2023-05-07T09:33:39;17.67;;;11.48;;
58496;SDS011;44284;51.310;16.904;2023-05-07T09:36:05;15.40;;;11.32;;
58496;SDS011;44284;51.310;16.904;2023-05-07T09:38:32;14.63;;;11.23;;
58496;SDS011;44284;51.310;16.904;2023-05-07T09:41:02;13.70;;;10.43;;
58496;SDS011;44284;51.310;16.904;2023-05-07T09:43:31;15.23;;;11.45;;
58496;SDS011;44284;51.310;16.904;2023-05-07T09:45:58;12.48;;;10.18;;
58496;SDS011;44284;51.310;16.904;2023-05-07T09:48:25;14.75;;;10.95;;
58496;SDS011;44284;51.310;16.904;2023-05-07T09:50:51;16.23;;;11.65;;
58496;SDS011;44284;51.310;16.904;2023-05-07T09:53:23;12.93;;;10.32;;
58496;SDS011;44284;51.310;16.904;2023-05-07T09:55:50;13.38;;;9.68;;
58496;SDS011;44284;51.310;16.904;2023-05-07T09:58:17;12.75;;;9.60;;
58496;SDS011;44284;51.310;16.904;2023-05-07T10:00:44;11.55;;;8.90;;
58496;SDS011;44284;51.310;16.904;2023-05-07T10:03:11;10.32;;;8.32;;
58496;SDS011;44284;51.310;16.904;2023-05-07T10:05:39;11.18;;;8.23;;
58496;SDS011;44284;51.310;16.904;2023-05-07T10:08:05;8.90;;;7.20;;
58496;SDS011;44284;51.310;16.904;2023-05-07T10:10:32;9.57;;;7.00;;
58496;SDS011;44284;51.310;16.904;2023-05-07T10:12:59;8.98;;;7.03;;
58496;SDS011;44284;51.310;16.904;2023-05-07T10:15:26;11.02;;;7.63;;
58496;SDS011;44284;51.310;16.904;2023-05-07T10:17:52;9.93;;;7.20;;
58496;SDS011;44284;51.310;16.904;2023-05-07T10:20:19;12.43;;;7.95;;
58496;SDS011;44284;51.310;16.904;2023-05-07T10:22:45;9.50;;;7.35;;
58496;SDS011;44284;51.310;16.904;2023-05-07T10:25:18;10.13;;;7.80;;
58496;SDS011;44284;51.310;16.904;2023-05-07T10:27:46;11.43;;;7.30;;
58496;SDS011;44284;51.310;16.904;2023-05-07T10:30:26;10.20;;;7.15;;
58496;SDS011;44284;51.310;16.904;2023-05-07T10:32:59;10.48;;;7.05;;
58496;SDS011;44284;51.310;16.904;2023-05-07T10:35:31;10.80;;;7.85;;
58496;SDS011;44284;51.310;16.904;2023-05-07T10:37:58;9.52;;;7.07;;
58496;SDS011;44284;51.310;16.904;2023-05-07T10:40:24;9.30;;;7.75;;
58496;SDS011;44284;51.310;16.904;2023-05-07T10:42:57;9.75;;;7.32;;
58496;SDS011;44284;51.310;16.904;2023-05-07T10:45:24;9.90;;;6.70;;
58496;SDS011;44284;51.310;16.904;2023-05-07T10:50:33;9.80;;;7.07;;
58496;SDS011;44284;51.310;16.904;2023-05-07T10:55:47;12.73;;;8.27;;
58496;SDS011;44284;51.310;16.904;2023-05-07T10:58:24;10.73;;;7.50;;
58496;SDS011;44284;51.310;16.904;2023-05-07T11:01:00;9.27;;;6.88;;
58496;SDS011;44284;51.310;16.904;2023-05-07T11:03:26;8.45;;;6.38;;
58496;SDS011;44284;51.310;16.904;2023-05-07T11:11:19;9.50;;;6.85;;
58496;SDS011;44284;51.310;16.904;2023-05-07T11:13:46;12.98;;;8.13;;
58496;SDS011;44284;51.310;16.904;2023-05-07T11:16:22;12.65;;;8.05;;
58496;SDS011;44284;51.310;16.904;2023-05-07T11:18:53;8.63;;;7.28;;
58496;SDS011;44284;51.310;16.904;2023-05-07T11:23:58;12.93;;;8.38;;
58496;SDS011;44284;51.310;16.904;2023-05-07T11:26:24;11.68;;;7.95;;
58496;SDS011;44284;51.310;16.904;2023-05-07T11:28:51;11.90;;;8.45;;
58496;SDS011;44284;51.310;16.904;2023-05-07T11:31:22;10.90;;;8.55;;
58496;SDS011;44284;51.310;16.904;2023-05-07T11:33:48;9.82;;;8.05;;
58496;SDS011;44284;51.310;16.904;2023-05-07T11:36:14;11.50;;;9.18;;
58496;SDS011;44284;51.310;16.904;2023-05-07T11:38:41;10.57;;;8.93;;
58496;SDS011;44284;51.310;16.904;2023-05-07T11:41:07;10.23;;;8.18;;
58496;SDS011;44284;51.310;16.904;2023-05-07T11:43:34;13.57;;;8.00;;
58496;SDS011;44284;51.310;16.904;2023-05-07T11:46:08;11.20;;;8.23;;
58496;SDS011;44284;51.310;16.904;2023-05-07T11:48:34;10.63;;;8.00;;
58496;SDS011;44284;51.310;16.904;2023-05-07T11:51:01;8.40;;;7.20;;
58496;SDS011;44284;51.310;16.904;2023-05-07T11:53:28;8.80;;;7.38;;
58496;SDS011;44284;51.310;16.904;2023-05-07T11:55:57;12.35;;;7.10;;
58496;SDS011;44284;51.310;16.904;2023-05-07T11:58:24;10.70;;;6.97;;
58496;SDS011;44284;51.310;16.904;2023-05-07T12:00:51;10.18;;;6.80;;
58496;SDS011;44284;51.310;16.904;2023-05-07T12:03:17;9.30;;;7.35;;
58496;SDS011;44284;51.310;16.904;2023-05-07T12:05:44;10.70;;;8.98;;
58496;SDS011;44284;51.310;16.904;2023-05-07T12:08:16;26.05;;;11.20;;
58496;SDS011;44284;51.310;16.904;2023-05-07T12:10:43;11.27;;;9.50;;
58496;SDS011;44284;51.310;16.904;2023-05-07T12:13:19;10.98;;;8.73;;
58496;SDS011;44284;51.310;16.904;2023-05-07T12:15:46;10.00;;;7.88;;
58496;SDS011;44284;51.310;16.904;2023-05-07T12:18:12;10.68;;;8.30;;
58496;SDS011;44284;51.310;16.904;2023-05-07T12:20:39;11.55;;;9.07;;
58496;SDS011;44284;51.310;16.904;2023-05-07T12:23:05;10.25;;;7.75;;
58496;SDS011;44284;51.310;16.904;2023-05-07T12:25:32;10.48;;;7.72;;
58496;SDS011;44284;51.310;16.904;2023-05-07T12:28:00;11.52;;;9.30;;
58496;SDS011;44284;51.310;16.904;2023-05-07T12:30:26;12.15;;;9.15;;
58496;SDS011;44284;51.310;16.904;2023-05-07T12:32:53;10.75;;;7.50;;
58496;SDS011;44284;51.310;16.904;2023-05-07T12:35:28;9.52;;;7.45;;
58496;SDS011;44284;51.310;16.904;2023-05-07T12:37:55;11.95;;;7.35;;
58496;SDS011;44284;51.310;16.904;2023-05-07T12:40:21;9.70;;;7.75;;
58496;SDS011;44284;51.310;16.904;2023-05-07T12:42:47;9.00;;;7.30;;
58496;SDS011;44284;51.310;16.904;2023-05-07T12:45:19;8.82;;;7.55;;
58496;SDS011;44284;51.310;16.904;2023-05-07T12:47:46;10.40;;;7.97;;
58496;SDS011;44284;51.310;16.904;2023-05-07T12:50:12;13.10;;;10.77;;
58496;SDS011;44284;51.310;16.904;2023-05-07T12:52:39;11.10;;;8.40;;
58496;SDS011;44284;51.310;16.904;2023-05-07T12:55:05;9.63;;;7.40;;
58496;SDS011;44284;51.310;16.904;2023-05-07T12:57:37;9.55;;;6.90;;
58496;SDS011;44284;51.310;16.904;2023-05-07T13:00:04;10.85;;;7.78;;
58496;SDS011;44284;51.310;16.904;2023-05-07T13:02:34;9.85;;;7.07;;
58496;SDS011;44284;51.310;16.904;2023-05-07T13:05:00;8.93;;;7.40;;
58496;SDS011;44284;51.310;16.904;2023-05-07T13:07:26;10.00;;;7.97;;
58496;SDS011;44284;51.310;16.904;2023-05-07T13:09:52;10.88;;;7.95;;
58496;SDS011;44284;51.310;16.904;2023-05-07T13:12:19;10.18;;;7.82;;
58496;SDS011;44284;51.310;16.904;2023-05-07T13:14:45;8.13;;;7.00;;
58496;SDS011;44284;51.310;16.904;2023-05-07T13:17:11;10.20;;;7.38;;
58496;SDS011;44284;51.310;16.904;2023-05-07T13:19:37;10.15;;;7.60;;
58496;SDS011;44284;51.310;16.904;2023-05-07T13:22:03;9.95;;;7.22;;
58496;SDS011;44284;51.310;16.904;2023-05-07T13:24:29;8.95;;;7.35;;
58496;SDS011;44284;51.310;16.904;2023-05-07T13:26:55;16.50;;;8.70;;
58496;SDS011;44284;51.310;16.904;2023-05-07T13:29:21;10.80;;;8.27;;
58496;SDS011;44284;51.310;16.904;2023-05-07T13:31:55;11.45;;;8.00;;
58496;SDS011;44284;51.310;16.904;2023-05-07T13:34:21;10.25;;;8.05;;
58496;SDS011;44284;51.310;16.904;2023-05-07T13:36:47;11.98;;;7.80;;
58496;SDS011;44284;51.310;16.904;2023-05-07T13:39:13;10.35;;;7.85;;
58496;SDS011;44284;51.310;16.904;2023-05-07T13:41:40;10.45;;;7.80;;
58496;SDS011;44284;51.310;16.904;2023-05-07T13:44:06;10.77;;;8.43;;
58496;SDS011;44284;51.310;16.904;2023-05-07T13:46:32;10.07;;;7.80;;
58496;SDS011;44284;51.310;16.904;2023-05-07T13:48:58;11.73;;;8.43;;
58496;SDS011;44284;51.310;16.904;2023-05-07T13:51:24;14.18;;;8.10;;
58496;SDS011;44284;51.310;16.904;2023-05-07T13:53:50;11.48;;;8.65;;
58496;SDS011;44284;51.310;16.904;2023-05-07T13:56:17;9.60;;;8.27;;
58496;SDS011;44284;51.310;16.904;2023-05-07T13:58:45;10.90;;;8.40;;
58496;SDS011;44284;51.310;16.904;2023-05-07T14:01:11;9.35;;;8.13;;
58496;SDS011;44284;51.310;16.904;2023-05-07T14:03:37;10.90;;;9.43;;
58496;SDS011;44284;51.310;16.904;2023-05-07T14:06:04;10.45;;;9.15;;
58496;SDS011;44284;51.310;16.904;2023-05-07T14:08:30;11.35;;;8.95;;
58496;SDS011;44284;51.310;16.904;2023-05-07T14:10:57;10.60;;;8.43;;
58496;SDS011;44284;51.310;16.904;2023-05-07T14:13:24;15.93;;;11.90;;
58496;SDS011;44284;51.310;16.904;2023-05-07T14:15:51;12.48;;;9.70;;
58496;SDS011;44284;51.310;16.904;2023-05-07T14:18:17;10.13;;;8.32;;
58496;SDS011;44284;51.310;16.904;2023-05-07T14:20:43;10.25;;;8.13;;
58496;SDS011;44284;51.310;16.904;2023-05-07T14:23:11;12.70;;;8.55;;
58496;SDS011;44284;51.310;16.904;2023-05-07T14:25:37;10.85;;;8.30;;
58496;SDS011;44284;51.310;16.904;2023-05-07T14:28:03;11.43;;;8.48;;
58496;SDS011;44284;51.310;16.904;2023-05-07T14:30:30;11.23;;;9.07;;